Time;durP1;ratioP1;P1;durP2;ratioP2;P2;SDS_P1;SDS_P2;PMS_P1;PMS_P2;Temp;Humidity;BMP_temperature;BMP_pressure;BME280_temperature;BME280_humidity;BME280_pressure;Samples;Min_cycle;Max_cycle;Signal;HPM_P1;HPM_P2
2022/01/24 00:01:54;;;;;;;11.20;9.90;;;;;;;;;;5126650;27;24445;-60
2022/01/24 00:04:21;;;;;;;11.25;9.50;;;;;;;;;;5126761;27;24413;-59
2022/01/24 00:06:46;;;;;;;12.52;10.50;;;;;;;;;;5126946;27;24528;-57
2022/01/24 00:09:12;;;;;;;12.37;10.93;;;;;;;;;;5126881;27;24501;-59
2022/01/24 00:14:49;;;;;;;9.43;8.50;;;;;;;;;;5127480;27;24448;-59
2022/01/24 00:17:11;;;;;;;10.30;9.02;;;;;;;;;;5127708;28;24442;-60
2022/01/24 00:27:49;;;;;;;10.00;8.90;;;;;;;;;;5121889;28;24478;-60
2022/01/24 00:30:15;;;;;;;10.20;9.10;;;;;;;;;;5127445;28;24973;-60
2022/01/24 00:32:40;;;;;;;10.23;9.17;;;;;;;;;;5125133;28;24416;-60
2022/01/24 00:35:06;;;;;;;11.10;9.40;;;;;;;;;;5126891;28;24416;-59
2022/01/24 00:37:33;;;;;;;10.20;9.10;;;;;;;;;;5121432;28;24447;-59
2022/01/24 00:39:58;;;;;;;11.30;9.45;;;;;;;;;;5127348;28;24405;-60
2022/01/24 00:42:34;;;;;;;10.77;9.30;;;;;;;;;;5127256;28;24417;-60
2022/01/24 00:45:15;;;;;;;11.40;9.77;;;;;;;;;;5119386;28;24417;-60
2022/01/24 00:53:30;;;;;;;10.50;9.32;;;;;;;;;;5124090;28;24560;-60
2022/01/24 00:55:56;;;;;;;9.88;8.82;;;;;;;;;;5126494;28;24417;-60
2022/01/24 00:58:21;;;;;;;9.80;8.80;;;;;;;;;;5126789;28;24413;-60
2022/01/24 01:00:46;;;;;;;10.75;9.60;;;;;;;;;;5117177;28;24413;-59
2022/01/24 01:03:11;;;;;;;10.07;8.83;;;;;;;;;;5119688;28;24777;-59
2022/01/24 01:18:48;;;;;;;10.73;9.63;;;;;;;;;;5116261;27;24462;-60
2022/01/24 01:21:16;;;;;;;11.43;9.83;;;;;;;;;;5120866;27;24421;-59
2022/01/24 01:23:49;;;;;;;10.50;9.23;;;;;;;;;;5125731;27;24898;-60
2022/01/24 01:26:26;;;;;;;11.35;10.15;;;;;;;;;;5126841;27;24425;-60
2022/01/24 01:29:02;;;;;;;11.75;9.77;;;;;;;;;;5130383;27;24441;-60
2022/01/24 01:31:49;;;;;;;10.20;9.10;;;;;;;;;;5129626;27;24964;-59
2022/01/24 01:37:18;;;;;;;10.35;9.25;;;;;;;;;;5129076;27;24449;-59
2022/01/24 01:55:43;;;;;;;11.10;9.20;;;;;;;;;;5130008;27;24405;-59
2022/01/24 01:58:13;;;;;;;9.60;8.10;;;;;;;;;;5129394;27;24425;-59
2022/01/24 02:00:40;;;;;;;9.10;7.83;;;;;;;;;;5128798;27;24514;-59
2022/01/24 02:03:06;;;;;;;10.55;9.20;;;;;;;;;;5129109;27;24413;-59
2022/01/24 02:05:31;;;;;;;10.27;8.85;;;;;;;;;;5129175;27;25062;-59
2022/01/24 02:07:56;;;;;;;10.20;8.60;;;;;;;;;;5129476;27;24470;-59
2022/01/24 02:10:22;;;;;;;11.40;10.07;;;;;;;;;;5129611;27;24444;-59
2022/01/24 02:12:48;;;;;;;9.57;8.13;;;;;;;;;;5128959;27;24966;-59
2022/01/24 02:15:18;;;;;;;9.85;8.57;;;;;;;;;;5128105;27;24417;-60
2022/01/24 02:22:51;;;;;;;9.30;8.30;;;;;;;;;;5119913;27;24459;-60
2022/01/24 02:25:26;;;;;;;10.33;8.90;;;;;;;;;;5125944;27;24957;-59
2022/01/24 02:27:57;;;;;;;9.10;8.15;;;;;;;;;;5129029;27;24452;-59
2022/01/24 02:33:08;;;;;;;9.40;8.40;;;;;;;;;;5128601;27;24413;-60
2022/01/24 02:35:33;;;;;;;9.90;8.90;;;;;;;;;;5112425;27;24943;-60
2022/01/24 02:38:02;;;;;;;8.80;7.85;;;;;;;;;;5125698;27;24482;-60
2022/01/24 02:40:28;;;;;;;9.00;8.10;;;;;;;;;;5123348;27;24448;-60
2022/01/24 02:48:28;;;;;;;7.85;7.05;;;;;;;;;;5129071;27;24575;-58
2022/01/24 02:53:22;;;;;;;8.35;7.55;;;;;;;;;;5122810;27;24502;-59
2022/01/24 02:55:48;;;;;;;7.80;7.03;;;;;;;;;;5128616;27;24583;-59
2022/01/24 02:58:15;;;;;;;7.70;6.90;;;;;;;;;;5128742;27;24656;-59
2022/01/24 03:00:40;;;;;;;6.90;6.20;;;;;;;;;;5128160;27;24421;-59
2022/01/24 03:03:06;;;;;;;7.83;6.70;;;;;;;;;;5127208;27;24824;-59
2022/01/24 03:05:31;;;;;;;7.37;6.27;;;;;;;;;;5128617;27;24643;-59
2022/01/24 03:07:56;;;;;;;8.60;6.70;;;;;;;;;;5128773;27;24552;-59
2022/01/24 03:10:35;;;;;;;7.13;6.40;;;;;;;;;;5124232;27;24417;-59
2022/01/24 03:13:18;;;;;;;8.57;6.90;;;;;;;;;;5127850;27;24441;-59
2022/01/24 03:15:44;;;;;;;6.88;6.18;;;;;;;;;;5126807;27;25009;-59
2022/01/24 03:18:10;;;;;;;6.90;6.28;;;;;;;;;;5128566;27;24508;-59
2022/01/24 03:20:36;;;;;;;7.20;6.50;;;;;;;;;;5128636;27;24501;-59
2022/01/24 03:23:01;;;;;;;7.72;6.10;;;;;;;;;;5125907;27;25317;-59
2022/01/24 03:25:26;;;;;;;7.70;6.20;;;;;;;;;;5118766;27;24428;-59
2022/01/24 03:27:51;;;;;;;7.10;6.10;;;;;;;;;;5120620;27;24420;-59
2022/01/24 03:30:17;;;;;;;6.88;5.60;;;;;;;;;;5127484;27;24449;-59
2022/01/24 03:32:42;;;;;;;7.40;6.07;;;;;;;;;;5127591;27;25061;-58
2022/01/24 03:35:07;;;;;;;7.38;6.50;;;;;;;;;;5128046;27;24405;-58
2022/01/24 03:37:36;;;;;;;6.80;5.87;;;;;;;;;;5121717;27;24566;-59
2022/01/24 03:40:04;;;;;;;7.03;6.00;;;;;;;;;;5124693;27;24972;-59
2022/01/24 03:42:30;;;;;;;7.05;6.00;;;;;;;;;;5126868;27;24528;-59
2022/01/24 03:44:59;;;;;;;6.80;6.10;;;;;;;;;;5127612;27;24941;-59
2022/01/24 03:50:03;;;;;;;6.68;5.93;;;;;;;;;;5127620;27;24500;-59
2022/01/24 03:52:31;;;;;;;7.47;6.10;;;;;;;;;;5126770;27;24413;-58
2022/01/24 03:54:57;;;;;;;7.03;6.32;;;;;;;;;;5127785;27;24445;-58
2022/01/24 03:57:22;;;;;;;7.53;6.30;;;;;;;;;;5126866;27;24436;-58
2022/01/24 03:59:48;;;;;;;7.20;6.50;;;;;;;;;;5120888;27;24428;-59
2022/01/24 04:02:14;;;;;;;7.00;6.30;;;;;;;;;;5127087;27;24970;-58
2022/01/24 04:04:40;;;;;;;7.10;6.03;;;;;;;;;;5126823;27;24500;-59
2022/01/24 04:07:05;;;;;;;6.60;5.90;;;;;;;;;;5126536;27;24520;-59
2022/01/24 04:09:30;;;;;;;8.77;6.93;;;;;;;;;;5125524;27;24974;-59
2022/01/24 04:11:58;;;;;;;7.55;6.55;;;;;;;;;;5118119;27;24934;-59
2022/01/24 04:22:07;;;;;;;8.30;6.82;;;;;;;;;;5123174;28;24474;-61
2022/01/24 04:24:32;;;;;;;7.97;7.00;;;;;;;;;;5123274;28;24413;-60
2022/01/24 04:26:57;;;;;;;7.50;6.35;;;;;;;;;;5122455;28;24862;-60
2022/01/24 04:29:22;;;;;;;7.50;6.70;;;;;;;;;;5121864;28;24435;-60
2022/01/24 04:31:47;;;;;;;8.50;6.90;;;;;;;;;;5126246;28;24458;-60
2022/01/24 04:34:13;;;;;;;8.10;6.60;;;;;;;;;;5126950;28;24421;-60
2022/01/24 04:36:38;;;;;;;7.22;6.53;;;;;;;;;;5125333;28;24417;-60
2022/01/24 04:39:04;;;;;;;7.93;6.70;;;;;;;;;;5120136;28;24527;-61
2022/01/24 04:41:34;;;;;;;8.80;7.40;;;;;;;;;;5113253;28;24409;-60
2022/01/24 04:44:10;;;;;;;9.07;8.07;;;;;;;;;;5125323;28;24504;-60
2022/01/24 04:54:51;;;;;;;8.40;7.50;;;;;;;;;;5121175;27;24462;-60
2022/01/24 04:57:17;;;;;;;8.80;8.00;;;;;;;;;;5131316;27;24536;-60
2022/01/24 04:59:45;;;;;;;9.60;8.63;;;;;;;;;;5120716;27;24466;-60
2022/01/24 05:02:10;;;;;;;9.40;8.40;;;;;;;;;;5110621;28;24388;-60
2022/01/24 05:04:36;;;;;;;9.20;8.30;;;;;;;;;;5122968;27;24424;-60
2022/01/24 05:07:01;;;;;;;9.07;8.18;;;;;;;;;;5129692;27;24429;-60
2022/01/24 05:09:31;;;;;;;9.18;7.82;;;;;;;;;;5129679;27;24409;-60
2022/01/24 05:12:14;;;;;;;8.25;7.40;;;;;;;;;;5129963;27;24409;-60
2022/01/24 05:25:35;;;;;;;9.80;8.80;;;;;;;;;;5121871;27;25008;-59
2022/01/24 05:28:00;;;;;;;8.35;7.55;;;;;;;;;;5111476;27;24422;-60
2022/01/24 05:30:25;;;;;;;8.00;7.20;;;;;;;;;;5118204;27;24413;-60
2022/01/24 05:32:50;;;;;;;7.60;6.80;;;;;;;;;;5125723;27;24469;-60
2022/01/24 05:35:15;;;;;;;6.90;6.20;;;;;;;;;;5122282;27;24872;-60
2022/01/24 05:37:41;;;;;;;7.10;6.40;;;;;;;;;;5118899;27;24442;-60
2022/01/24 05:40:06;;;;;;;7.20;6.50;;;;;;;;;;5121791;27;24452;-62
2022/01/24 05:42:32;;;;;;;6.90;6.20;;;;;;;;;;5126086;27;25353;-60
2022/01/24 05:44:58;;;;;;;7.30;6.40;;;;;;;;;;5124322;27;24477;-60
2022/01/24 05:47:23;;;;;;;7.60;6.00;;;;;;;;;;5125027;27;24425;-61
2022/01/24 05:49:48;;;;;;;6.50;5.90;;;;;;;;;;5127645;27;24411;-60
2022/01/24 05:52:13;;;;;;;6.97;6.10;;;;;;;;;;5124704;27;24954;-60
2022/01/24 05:54:39;;;;;;;6.80;5.90;;;;;;;;;;5120197;27;25011;-59
2022/01/24 05:57:04;;;;;;;6.38;5.60;;;;;;;;;;5125345;27;24545;-60
2022/01/24 05:59:30;;;;;;;6.00;5.50;;;;;;;;;;5126360;27;24452;-61
2022/01/24 06:01:55;;;;;;;6.37;5.60;;;;;;;;;;5124781;27;24409;-61
2022/01/24 06:04:20;;;;;;;7.00;6.40;;;;;;;;;;5127007;27;24516;-60
2022/01/24 06:06:45;;;;;;;7.60;6.90;;;;;;;;;;5125114;27;24497;-60
2022/01/24 06:09:10;;;;;;;7.37;6.60;;;;;;;;;;5125412;27;24509;-60
2022/01/24 06:11:35;;;;;;;6.23;5.63;;;;;;;;;;5126762;27;24409;-61
2022/01/24 06:14:03;;;;;;;7.13;6.30;;;;;;;;;;5120660;27;24452;-60
2022/01/24 06:16:28;;;;;;;7.10;6.40;;;;;;;;;;5124293;27;24511;-60
2022/01/24 06:18:53;;;;;;;7.78;6.90;;;;;;;;;;5114852;27;24505;-61
2022/01/24 06:21:18;;;;;;;8.35;6.93;;;;;;;;;;5108513;27;24425;-60
2022/01/24 06:23:43;;;;;;;7.70;6.90;;;;;;;;;;5124976;27;24447;-60
2022/01/24 06:26:10;;;;;;;8.15;7.07;;;;;;;;;;5113623;27;25246;-60
2022/01/24 06:28:35;;;;;;;8.50;7.70;;;;;;;;;;5128624;27;24405;-60
2022/01/24 06:31:00;;;;;;;9.15;8.25;;;;;;;;;;5128837;27;24395;-60
2022/01/24 06:33:25;;;;;;;9.77;8.77;;;;;;;;;;5128118;27;24401;-60
2022/01/24 06:35:50;;;;;;;9.37;8.47;;;;;;;;;;5128675;27;24497;-62
2022/01/24 06:38:16;;;;;;;8.87;7.97;;;;;;;;;;5128497;27;24452;-60
2022/01/24 06:40:41;;;;;;;8.43;7.53;;;;;;;;;;5129525;27;24932;-60
2022/01/24 06:43:06;;;;;;;8.95;8.05;;;;;;;;;;5129068;27;24485;-60
2022/01/24 06:45:31;;;;;;;8.75;7.85;;;;;;;;;;5128908;27;24440;-60
2022/01/24 06:47:56;;;;;;;8.50;7.50;;;;;;;;;;5128743;27;24420;-60
2022/01/24 06:50:21;;;;;;;8.20;7.40;;;;;;;;;;5117143;27;25030;-60
2022/01/24 06:52:48;;;;;;;8.10;7.30;;;;;;;;;;5124962;27;24954;-60
2022/01/24 06:55:13;;;;;;;8.20;7.32;;;;;;;;;;5125150;27;24955;-60
2022/01/24 06:57:38;;;;;;;8.00;7.20;;;;;;;;;;5126532;27;24417;-60
2022/01/24 07:00:04;;;;;;;8.33;7.23;;;;;;;;;;5127746;27;24958;-60
2022/01/24 07:02:29;;;;;;;7.95;7.15;;;;;;;;;;5124403;27;24417;-59
2022/01/24 07:04:54;;;;;;;8.38;7.47;;;;;;;;;;5126675;27;24405;-60
2022/01/24 07:07:19;;;;;;;7.77;7.07;;;;;;;;;;5127102;27;25465;-60
2022/01/24 07:09:45;;;;;;;8.15;7.35;;;;;;;;;;5128804;27;24405;-59
2022/01/24 07:12:10;;;;;;;8.33;7.53;;;;;;;;;;5128307;27;24405;-61
2022/01/24 07:14:36;;;;;;;9.15;8.20;;;;;;;;;;5127391;27;24697;-60
2022/01/24 07:19:52;;;;;;;8.27;7.47;;;;;;;;;;5121275;27;24986;-60
2022/01/24 07:22:18;;;;;;;8.70;7.80;;;;;;;;;;5124819;27;24413;-60
2022/01/24 07:24:43;;;;;;;10.02;8.55;;;;;;;;;;5128232;27;24598;-61
2022/01/24 07:27:08;;;;;;;9.43;8.20;;;;;;;;;;5127294;27;24425;-60
2022/01/24 07:29:33;;;;;;;9.87;8.87;;;;;;;;;;5127662;27;24502;-61
2022/01/24 07:31:59;;;;;;;10.27;9.18;;;;;;;;;;5123587;27;24420;-60
2022/01/24 07:34:24;;;;;;;10.70;9.60;;;;;;;;;;5127977;27;24474;-60
2022/01/24 07:36:50;;;;;;;10.40;9.30;;;;;;;;;;5127709;27;24478;-60
2022/01/24 07:39:15;;;;;;;12.93;11.30;;;;;;;;;;5123137;27;24456;-60
2022/01/24 07:41:46;;;;;;;12.30;10.87;;;;;;;;;;5125355;27;24427;-60
2022/01/24 07:44:11;;;;;;;11.45;10.25;;;;;;;;;;5123225;27;24417;-61
2022/01/24 07:46:36;;;;;;;12.00;10.50;;;;;;;;;;5124202;27;24827;-59
2022/01/24 07:49:03;;;;;;;11.27;10.17;;;;;;;;;;5121640;27;24420;-60
2022/01/24 07:51:28;;;;;;;10.73;9.63;;;;;;;;;;5116496;27;24401;-60
2022/01/24 07:53:53;;;;;;;10.77;9.20;;;;;;;;;;5123510;27;24427;-60
2022/01/24 07:56:18;;;;;;;9.90;8.90;;;;;;;;;;5127581;27;25001;-59
2022/01/24 07:58:44;;;;;;;8.33;7.53;;;;;;;;;;5127081;27;25261;-60
2022/01/24 08:01:10;;;;;;;9.00;8.10;;;;;;;;;;5127430;27;24423;-60
2022/01/24 08:03:35;;;;;;;9.30;8.17;;;;;;;;;;5127955;27;24417;-60
2022/01/24 08:06:00;;;;;;;10.25;8.23;;;;;;;;;;5125058;27;24863;-62
2022/01/24 08:08:25;;;;;;;9.43;8.43;;;;;;;;;;5126769;27;24456;-60
2022/01/24 08:10:50;;;;;;;9.70;8.70;;;;;;;;;;5107016;28;24393;-60
2022/01/24 08:13:15;;;;;;;9.50;8.60;;;;;;;;;;5106825;28;25003;-61
2022/01/24 08:15:41;;;;;;;10.88;9.77;;;;;;;;;;5107280;28;24393;-60
2022/01/24 08:18:06;;;;;;;10.45;9.35;;;;;;;;;;5123747;28;24413;-61
2022/01/24 08:20:32;;;;;;;11.35;10.15;;;;;;;;;;5126898;28;24775;-61
2022/01/24 08:22:57;;;;;;;10.60;9.50;;;;;;;;;;5127673;28;24534;-61
2022/01/24 08:25:23;;;;;;;11.43;9.65;;;;;;;;;;5126956;28;24545;-61
2022/01/24 08:27:48;;;;;;;13.13;10.93;;;;;;;;;;5127213;28;24443;-61
2022/01/24 08:30:15;;;;;;;11.43;10.23;;;;;;;;;;5130026;27;24401;-60
2022/01/24 08:32:40;;;;;;;12.38;11.07;;;;;;;;;;5131382;27;24401;-61
2022/01/24 08:35:06;;;;;;;11.20;10.00;;;;;;;;;;5131343;27;24914;-61
2022/01/24 08:37:32;;;;;;;12.68;11.38;;;;;;;;;;5131357;27;24552;-61
2022/01/24 08:39:58;;;;;;;10.77;9.68;;;;;;;;;;5131278;27;24417;-61
2022/01/24 08:42:33;;;;;;;11.10;10.00;;;;;;;;;;5130835;27;24442;-61
2022/01/24 08:47:24;;;;;;;9.67;8.67;;;;;;;;;;5130839;27;24569;-60
2022/01/24 08:49:50;;;;;;;9.98;8.98;;;;;;;;;;5131348;27;24488;-60
2022/01/24 08:52:15;;;;;;;10.23;9.23;;;;;;;;;;5130898;27;24505;-60
2022/01/24 08:54:40;;;;;;;13.70;12.17;;;;;;;;;;5130768;27;24422;-60
2022/01/24 08:57:05;;;;;;;11.17;9.87;;;;;;;;;;5131053;27;24473;-60
2022/01/24 08:59:32;;;;;;;10.70;9.60;;;;;;;;;;5130593;27;24419;-60
2022/01/24 09:01:57;;;;;;;10.75;9.75;;;;;;;;;;5130939;27;24393;-61
2022/01/24 09:04:22;;;;;;;9.67;8.77;;;;;;;;;;5130896;27;24488;-60
2022/01/24 09:06:47;;;;;;;10.70;9.70;;;;;;;;;;5128903;27;24969;-60
2022/01/24 09:09:14;;;;;;;10.43;8.90;;;;;;;;;;5130805;27;24429;-60
2022/01/24 09:11:39;;;;;;;9.90;8.90;;;;;;;;;;5131114;27;24453;-59
2022/01/24 09:14:05;;;;;;;10.30;9.27;;;;;;;;;;5130569;27;24393;-60
2022/01/24 09:16:30;;;;;;;10.23;9.13;;;;;;;;;;5129949;27;24496;-61
2022/01/24 09:18:55;;;;;;;9.83;8.83;;;;;;;;;;5130970;27;24759;-60
2022/01/24 09:21:21;;;;;;;10.00;9.00;;;;;;;;;;5130418;27;24807;-60
2022/01/24 09:23:46;;;;;;;10.20;9.20;;;;;;;;;;5130481;27;24409;-61
2022/01/24 09:26:12;;;;;;;9.00;8.10;;;;;;;;;;5130424;27;24409;-60
2022/01/24 09:28:37;;;;;;;10.57;9.57;;;;;;;;;;5130174;27;24417;-60
2022/01/24 09:31:02;;;;;;;10.40;9.40;;;;;;;;;;5130404;27;24393;-61
2022/01/24 09:33:27;;;;;;;9.90;8.90;;;;;;;;;;5130147;27;24385;-61
2022/01/24 09:35:58;;;;;;;9.87;8.87;;;;;;;;;;5128277;27;24542;-60
2022/01/24 09:38:24;;;;;;;10.07;9.07;;;;;;;;;;5129624;27;24500;-60
2022/01/24 09:40:49;;;;;;;10.52;9.43;;;;;;;;;;5129984;27;24976;-60
2022/01/24 09:43:14;;;;;;;10.23;9.23;;;;;;;;;;5129914;27;24397;-59
2022/01/24 09:45:39;;;;;;;9.68;8.68;;;;;;;;;;5129598;27;24416;-60
2022/01/24 09:48:05;;;;;;;10.13;9.10;;;;;;;;;;5129957;27;25274;-60
2022/01/24 09:50:30;;;;;;;10.33;9.30;;;;;;;;;;5129548;27;24392;-60
2022/01/24 09:52:55;;;;;;;9.37;8.47;;;;;;;;;;5129673;27;24416;-60
2022/01/24 09:55:21;;;;;;;9.43;8.53;;;;;;;;;;5130084;27;24517;-60
2022/01/24 09:57:47;;;;;;;10.00;9.00;;;;;;;;;;5130088;27;24958;-61
2022/01/24 10:00:14;;;;;;;9.80;8.80;;;;;;;;;;5129902;27;24393;-64
2022/01/24 10:02:39;;;;;;;8.90;8.10;;;;;;;;;;5129718;27;24418;-59
2022/01/24 10:05:34;;;;;;;9.52;8.60;;;;;;;;;;5129782;27;24864;-60
2022/01/24 10:08:02;;;;;;;9.50;8.60;;;;;;;;;;5112613;27;24493;-60
2022/01/24 10:10:29;;;;;;;9.07;8.27;;;;;;;;;;5129215;27;24858;-60
2022/01/24 10:18:04;;;;;;;9.33;8.43;;;;;;;;;;5129369;27;24492;-60
2022/01/24 10:20:33;;;;;;;13.05;9.20;;;;;;;;;;5128882;27;24385;-59
2022/01/24 10:22:59;;;;;;;10.52;9.52;;;;;;;;;;5129675;27;24400;-60
2022/01/24 10:25:25;;;;;;;10.05;9.13;;;;;;;;;;5128941;27;24791;-59
2022/01/24 10:27:50;;;;;;;9.20;8.30;;;;;;;;;;5129105;27;24409;-59
2022/01/24 10:30:16;;;;;;;9.23;8.43;;;;;;;;;;5129072;27;24401;-60
2022/01/24 10:32:47;;;;;;;8.00;7.20;;;;;;;;;;5128985;27;24473;-61
2022/01/24 10:35:32;;;;;;;6.88;6.28;;;;;;;;;;5128756;27;24601;-60
2022/01/24 10:38:14;;;;;;;6.55;5.95;;;;;;;;;;5128866;27;24951;-61
2022/01/24 10:40:52;;;;;;;5.82;5.32;;;;;;;;;;5129142;27;24389;-60
2022/01/24 10:43:22;;;;;;;5.70;5.20;;;;;;;;;;5129013;27;24415;-60
2022/01/24 10:45:48;;;;;;;6.63;5.93;;;;;;;;;;5128290;27;24497;-60
2022/01/24 10:48:13;;;;;;;6.28;5.78;;;;;;;;;;5129185;27;24385;-61
2022/01/24 10:50:38;;;;;;;6.23;5.63;;;;;;;;;;5128765;27;24470;-60
2022/01/24 10:53:11;;;;;;;5.40;4.90;;;;;;;;;;5127829;27;24458;-60
2022/01/24 10:55:38;;;;;;;5.17;4.77;;;;;;;;;;5127932;27;24586;-60
2022/01/24 10:58:14;;;;;;;4.72;4.30;;;;;;;;;;5129167;27;24397;-60
2022/01/24 11:00:41;;;;;;;4.25;3.95;;;;;;;;;;5128613;27;24473;-60
2022/01/24 11:03:06;;;;;;;4.80;4.40;;;;;;;;;;5128827;27;24385;-60
2022/01/24 11:05:35;;;;;;;5.97;5.37;;;;;;;;;;5127600;27;24820;-59
2022/01/24 11:08:02;;;;;;;4.97;4.57;;;;;;;;;;5107844;28;24397;-59
2022/01/24 11:10:30;;;;;;;5.07;4.67;;;;;;;;;;5118792;27;24526;-60
2022/01/24 11:12:55;;;;;;;4.80;4.40;;;;;;;;;;5128413;27;24405;-60
2022/01/24 11:15:21;;;;;;;5.23;4.73;;;;;;;;;;5128267;27;24504;-60
2022/01/24 11:17:47;;;;;;;4.95;4.55;;;;;;;;;;5128139;27;24437;-59
2022/01/24 11:20:16;;;;;;;5.20;4.80;;;;;;;;;;5128086;27;24413;-60
2022/01/24 11:22:44;;;;;;;6.13;5.57;;;;;;;;;;5127795;27;24404;-60
2022/01/24 11:25:10;;;;;;;5.57;5.07;;;;;;;;;;5127876;27;24574;-60
2022/01/24 11:27:36;;;;;;;5.20;4.80;;;;;;;;;;5127971;27;24674;-60
2022/01/24 11:30:07;;;;;;;5.55;5.05;;;;;;;;;;5128337;27;24553;-60
2022/01/24 11:32:42;;;;;;;5.03;4.53;;;;;;;;;;5127534;27;24405;-60
2022/01/24 11:35:08;;;;;;;5.10;4.70;;;;;;;;;;5128086;27;24954;-60
2022/01/24 11:37:38;;;;;;;4.80;4.40;;;;;;;;;;5127346;27;24417;-60
2022/01/24 11:40:05;;;;;;;4.80;4.40;;;;;;;;;;5127605;27;24569;-60
2022/01/24 11:42:33;;;;;;;4.32;4.03;;;;;;;;;;5127221;27;25036;-60
2022/01/24 11:45:04;;;;;;;4.80;4.40;;;;;;;;;;5127921;27;24998;-60
2022/01/24 11:47:31;;;;;;;5.23;4.83;;;;;;;;;;5127527;27;24440;-60
2022/01/24 11:49:56;;;;;;;4.88;4.47;;;;;;;;;;5127662;27;24484;-60
2022/01/24 11:52:31;;;;;;;5.55;5.05;;;;;;;;;;5127502;27;25001;-61
2022/01/24 11:55:16;;;;;;;5.80;5.30;;;;;;;;;;5127654;27;24791;-59
2022/01/24 11:57:45;;;;;;;5.40;5.00;;;;;;;;;;5127347;27;24401;-59
2022/01/24 12:00:10;;;;;;;5.40;5.00;;;;;;;;;;5127603;27;24428;-60
2022/01/24 12:02:38;;;;;;;5.20;4.80;;;;;;;;;;5127085;27;24421;-61
2022/01/24 12:05:09;;;;;;;5.68;5.18;;;;;;;;;;5127458;27;24397;-60
2022/01/24 12:07:43;;;;;;;5.40;4.90;;;;;;;;;;5127194;27;24500;-60
2022/01/24 12:10:23;;;;;;;5.78;5.28;;;;;;;;;;5127477;27;24382;-60
2022/01/24 12:12:51;;;;;;;5.03;4.63;;;;;;;;;;5126813;27;24472;-62
2022/01/24 12:15:34;;;;;;;4.93;4.53;;;;;;;;;;5127457;27;24947;-61
2022/01/24 12:18:01;;;;;;;5.18;4.70;;;;;;;;;;5127479;27;24912;-60
2022/01/24 12:20:29;;;;;;;4.72;4.32;;;;;;;;;;5127587;28;24751;-61
2022/01/24 12:22:55;;;;;;;4.00;3.70;;;;;;;;;;5126993;28;24424;-61
2022/01/24 12:25:40;;;;;;;4.63;4.23;;;;;;;;;;5126993;28;24443;-61
2022/01/24 12:28:19;;;;;;;4.32;3.92;;;;;;;;;;5127409;28;24408;-60
2022/01/24 12:30:56;;;;;;;4.95;4.55;;;;;;;;;;5126915;28;24510;-61
2022/01/24 12:33:44;;;;;;;4.68;4.28;;;;;;;;;;5126851;28;24436;-61
2022/01/24 12:36:13;;;;;;;4.70;4.30;;;;;;;;;;5126611;28;25123;-60
2022/01/24 12:38:44;;;;;;;5.00;4.60;;;;;;;;;;5126692;28;24435;-60
2022/01/24 12:41:23;;;;;;;4.60;4.20;;;;;;;;;;5127000;28;24846;-60
2022/01/24 12:46:30;;;;;;;5.10;4.60;;;;;;;;;;5126287;28;24420;-60
2022/01/24 12:48:56;;;;;;;4.00;3.70;;;;;;;;;;5127146;28;24781;-60
2022/01/24 12:51:23;;;;;;;4.10;3.70;;;;;;;;;;5126783;28;24503;-60
2022/01/24 12:53:49;;;;;;;4.40;4.00;;;;;;;;;;5126571;28;24517;-61
2022/01/24 12:56:16;;;;;;;4.60;4.10;;;;;;;;;;5126776;28;24409;-60
2022/01/24 12:58:42;;;;;;;4.40;4.10;;;;;;;;;;5126578;28;24412;-61
2022/01/24 13:01:26;;;;;;;5.40;4.90;;;;;;;;;;5126762;28;24397;-62
2022/01/24 13:04:02;;;;;;;4.60;4.10;;;;;;;;;;5127003;28;24384;-60
2022/01/24 13:06:29;;;;;;;4.60;4.20;;;;;;;;;;5126331;28;24432;-60
2022/01/24 13:08:55;;;;;;;4.72;4.22;;;;;;;;;;5126969;28;24973;-60
2022/01/24 13:11:20;;;;;;;4.10;3.70;;;;;;;;;;5126741;28;24469;-60
2022/01/24 13:13:58;;;;;;;4.37;4.00;;;;;;;;;;5126668;28;24431;-60
2022/01/24 13:22:15;;;;;;;3.70;3.40;;;;;;;;;;5130729;27;24488;-61
2022/01/24 13:24:40;;;;;;;4.70;4.30;;;;;;;;;;5130176;27;24488;-61
2022/01/24 13:27:05;;;;;;;4.23;3.83;;;;;;;;;;5129911;27;24431;-60
2022/01/24 13:29:37;;;;;;;3.87;3.57;;;;;;;;;;5130068;27;24417;-60
2022/01/24 13:32:03;;;;;;;3.70;3.40;;;;;;;;;;5130701;27;24442;-60
2022/01/24 13:34:28;;;;;;;3.73;3.43;;;;;;;;;;5129397;27;24821;-59
2022/01/24 13:36:53;;;;;;;3.30;3.10;;;;;;;;;;5129639;27;24409;-61
2022/01/24 13:39:18;;;;;;;3.63;3.10;;;;;;;;;;5130343;27;24536;-60
2022/01/24 13:41:44;;;;;;;3.40;3.10;;;;;;;;;;5129983;27;24385;-60
2022/01/24 13:44:13;;;;;;;3.20;2.90;;;;;;;;;;5129886;27;24793;-60
2022/01/24 13:46:39;;;;;;;3.47;3.17;;;;;;;;;;5129904;27;24452;-60
2022/01/24 13:49:08;;;;;;;3.47;3.17;;;;;;;;;;5130110;27;24433;-60
2022/01/24 13:51:51;;;;;;;3.30;3.00;;;;;;;;;;5129889;27;24983;-60
2022/01/24 13:54:19;;;;;;;3.20;2.90;;;;;;;;;;5130312;27;24381;-60
2022/01/24 13:56:45;;;;;;;3.50;3.20;;;;;;;;;;5129656;27;24445;-60
2022/01/24 13:59:15;;;;;;;3.30;3.10;;;;;;;;;;5129041;27;24451;-59
2022/01/24 14:01:50;;;;;;;3.55;3.10;;;;;;;;;;5129554;27;24404;-59
2022/01/24 14:04:23;;;;;;;4.00;3.60;;;;;;;;;;5129725;27;24389;-60
2022/01/24 14:06:54;;;;;;;3.10;2.90;;;;;;;;;;5129277;27;24474;-59
2022/01/24 14:09:19;;;;;;;3.50;3.20;;;;;;;;;;5129161;27;24409;-60
2022/01/24 14:11:47;;;;;;;3.17;2.97;;;;;;;;;;5129532;27;24397;-59
2022/01/24 14:14:16;;;;;;;4.10;3.70;;;;;;;;;;5130236;27;24453;-59
2022/01/24 14:16:53;;;;;;;4.70;3.50;;;;;;;;;;5129193;27;24420;-59
2022/01/24 14:19:27;;;;;;;4.17;3.77;;;;;;;;;;5128985;27;25029;-60
2022/01/24 14:21:59;;;;;;;5.22;4.72;;;;;;;;;;5128999;27;24405;-59
2022/01/24 14:24:40;;;;;;;7.10;6.50;;;;;;;;;;5129487;27;24424;-60
2022/01/24 14:27:05;;;;;;;7.55;6.22;;;;;;;;;;5128125;27;24413;-60
2022/01/24 14:29:33;;;;;;;6.18;5.57;;;;;;;;;;5129082;27;25066;-60
2022/01/24 14:32:09;;;;;;;6.50;5.90;;;;;;;;;;5129082;27;24740;-60
2022/01/24 14:34:35;;;;;;;6.40;5.70;;;;;;;;;;5129405;27;24432;-60
2022/01/24 14:37:05;;;;;;;6.22;5.63;;;;;;;;;;5129337;27;24381;-61
2022/01/24 14:39:30;;;;;;;5.70;5.20;;;;;;;;;;5129168;27;24534;-60
2022/01/24 14:41:55;;;;;;;6.20;5.60;;;;;;;;;;5128184;27;25206;-60
2022/01/24 14:47:05;;;;;;;6.20;5.30;;;;;;;;;;5127116;27;24408;-60
2022/01/24 14:49:32;;;;;;;6.70;5.82;;;;;;;;;;5125997;27;24385;-60
2022/01/24 14:52:03;;;;;;;6.00;5.50;;;;;;;;;;5124535;27;24473;-59
2022/01/24 14:54:30;;;;;;;5.90;5.40;;;;;;;;;;5125729;27;24915;-59
2022/01/24 14:57:00;;;;;;;6.50;5.90;;;;;;;;;;5118941;27;24523;-59
2022/01/24 14:59:26;;;;;;;6.68;6.00;;;;;;;;;;5109342;27;24498;-60
2022/01/24 15:01:52;;;;;;;6.32;5.43;;;;;;;;;;5104656;28;24450;-59
2022/01/24 15:04:17;;;;;;;5.82;5.32;;;;;;;;;;5104838;28;24958;-60
2022/01/24 15:06:44;;;;;;;6.00;5.47;;;;;;;;;;5110017;27;24485;-59
2022/01/24 15:09:14;;;;;;;6.70;6.10;;;;;;;;;;5125521;27;24835;-60
2022/01/24 15:11:40;;;;;;;5.80;5.25;;;;;;;;;;5124562;27;24457;-60
2022/01/24 15:14:14;;;;;;;6.32;5.72;;;;;;;;;;5122292;27;24414;-61
2022/01/24 15:17:04;;;;;;;5.55;5.05;;;;;;;;;;5118536;27;24964;-59
2022/01/24 15:27:42;;;;;;;7.63;6.50;;;;;;;;;;5127309;27;24516;-60
2022/01/24 15:30:08;;;;;;;7.32;6.57;;;;;;;;;;5127794;27;24385;-60
2022/01/24 15:32:33;;;;;;;6.40;5.80;;;;;;;;;;5127268;27;25222;-60
2022/01/24 15:34:58;;;;;;;6.65;6.05;;;;;;;;;;5127949;27;24912;-60
2022/01/24 15:37:23;;;;;;;6.53;5.93;;;;;;;;;;5127441;27;24424;-60
2022/01/24 15:39:49;;;;;;;5.93;5.32;;;;;;;;;;5109160;27;24409;-61
2022/01/24 15:42:18;;;;;;;6.63;6.03;;;;;;;;;;5127783;27;24392;-60
2022/01/24 15:45:14;;;;;;;6.90;6.30;;;;;;;;;;5127831;27;24480;-60
2022/01/24 15:50:02;;;;;;;6.35;5.80;;;;;;;;;;5127657;27;24518;-61
2022/01/24 15:52:28;;;;;;;6.57;5.97;;;;;;;;;;5127643;27;24454;-61
2022/01/24 15:54:55;;;;;;;5.73;5.23;;;;;;;;;;5127599;27;24423;-60
2022/01/24 16:00:07;;;;;;;4.78;4.38;;;;;;;;;;5127749;27;24444;-60
2022/01/24 16:02:32;;;;;;;4.20;3.80;;;;;;;;;;5126937;27;24413;-59
2022/01/24 16:04:58;;;;;;;3.97;3.58;;;;;;;;;;5127439;27;24400;-61
2022/01/24 16:07:23;;;;;;;4.50;4.10;;;;;;;;;;5126633;27;24464;-60
2022/01/24 16:09:48;;;;;;;3.00;2.80;;;;;;;;;;5126750;27;24424;-61
2022/01/24 16:12:13;;;;;;;3.33;3.00;;;;;;;;;;5126986;27;25071;-60
2022/01/24 16:14:38;;;;;;;3.47;3.17;;;;;;;;;;5127546;27;24919;-60
2022/01/24 16:17:04;;;;;;;3.20;2.90;;;;;;;;;;5127303;27;24446;-60
2022/01/24 16:19:32;;;;;;;3.55;3.05;;;;;;;;;;5127071;27;24412;-60
2022/01/24 16:22:14;;;;;;;2.53;2.33;;;;;;;;;;5127043;28;24404;-60
2022/01/24 16:27:10;;;;;;;6.60;5.90;;;;;;;;;;5127051;28;24521;-60
2022/01/24 16:29:35;;;;;;;8.30;6.57;;;;;;;;;;5127392;28;24973;-60
2022/01/24 16:32:01;;;;;;;5.00;4.50;;;;;;;;;;5126970;28;24381;-60
2022/01/24 16:34:26;;;;;;;4.20;3.80;;;;;;;;;;5127414;28;24400;-60
2022/01/24 16:36:51;;;;;;;3.60;3.30;;;;;;;;;;5125929;28;25015;-61
2022/01/24 16:39:18;;;;;;;2.58;2.38;;;;;;;;;;5126731;28;24433;-61
2022/01/24 16:41:54;;;;;;;2.90;2.70;;;;;;;;;;5127219;28;24937;-61
2022/01/24 16:44:36;;;;;;;3.13;2.70;;;;;;;;;;5126447;28;24520;-60
2022/01/24 16:47:10;;;;;;;2.93;2.73;;;;;;;;;;5126580;28;24460;-55
2022/01/24 16:49:49;;;;;;;2.50;2.30;;;;;;;;;;5126669;27;24405;-55
2022/01/24 16:52:15;;;;;;;3.03;2.30;;;;;;;;;;5131148;27;24389;-56
2022/01/24 16:54:49;;;;;;;3.40;3.10;;;;;;;;;;5131273;27;24377;-56
2022/01/24 16:57:15;;;;;;;3.33;2.60;;;;;;;;;;5131281;27;24559;-56